Time;durP1;ratioP1;P1;durP2;ratioP2;P2;SDS_P1;SDS_P2;PMS_P1;PMS_P2;Temp;Humidity;BMP_temperature;BMP_pressure;BME280_temperature;BME280_humidity;BME280_pressure;Samples;Min_cycle;Max_cycle;Signal;HPM_P1;HPM_P2
2021/10/09 00:01:26;;;;;;;0.50;0.50;;;8.50;99.90;;;;;;4993720;28;20615;-64
2021/10/09 00:03:52;;;;;;;0.55;0.47;;;8.40;99.90;;;;;;4993404;28;20385;-64
2021/10/09 00:06:19;;;;;;;0.50;0.50;;;8.40;99.90;;;;;;4993273;28;20118;-64
2021/10/09 00:08:45;;;;;;;1.10;0.57;;;8.40;99.90;;;;;;4993080;28;20023;-64
2021/10/09 00:11:19;;;;;;;2.22;0.50;;;8.30;99.90;;;;;;4992883;28;20042;-64
2021/10/09 00:13:46;;;;;;;0.50;0.50;;;8.30;99.90;;;;;;4993024;28;20038;-64
2021/10/09 00:16:13;;;;;;;0.85;0.50;;;8.30;99.90;;;;;;4992951;28;20027;-64
2021/10/09 00:18:38;;;;;;;3.40;0.40;;;8.30;99.90;;;;;;4993186;28;20029;-64
2021/10/09 00:21:04;;;;;;;0.40;0.40;;;8.20;99.90;;;;;;4993089;28;20397;-64
2021/10/09 00:23:30;;;;;;;3.60;0.50;;;8.20;99.90;;;;;;4993047;28;20434;-64
2021/10/09 00:25:56;;;;;;;1.50;0.50;;;8.10;99.90;;;;;;4992732;28;20490;-64
2021/10/09 00:28:23;;;;;;;3.67;0.43;;;8.10;99.90;;;;;;4992771;28;20058;-64
2021/10/09 00:30:49;;;;;;;0.43;0.40;;;8.00;99.90;;;;;;4992805;28;20042;-65
2021/10/09 00:33:14;;;;;;;2.60;0.50;;;8.00;99.90;;;;;;4992655;28;20022;-66
2021/10/09 00:35:41;;;;;;;1.33;0.40;;;8.00;99.90;;;;;;4992730;28;20066;-65
2021/10/09 00:38:06;;;;;;;0.50;0.50;;;8.00;99.90;;;;;;4992596;28;20030;-66
2021/10/09 00:40:32;;;;;;;0.40;0.40;;;8.10;99.90;;;;;;4992588;28;20027;-65
2021/10/09 00:42:58;;;;;;;0.50;0.50;;;8.00;99.90;;;;;;4992652;28;20030;-65
2021/10/09 00:45:24;;;;;;;0.35;0.35;;;8.00;99.90;;;;;;4992568;28;20497;-66
2021/10/09 00:47:51;;;;;;;0.40;0.40;;;8.00;99.90;;;;;;4992312;28;20033;-66
2021/10/09 00:50:17;;;;;;;0.50;0.50;;;8.00;99.90;;;;;;4992440;28;20037;-66
2021/10/09 00:52:44;;;;;;;1.27;0.57;;;7.90;99.90;;;;;;4992385;28;20053;-66
2021/10/09 00:55:10;;;;;;;0.40;0.40;;;7.90;99.90;;;;;;4992615;28;20060;-66
2021/10/09 00:57:39;;;;;;;0.70;0.50;;;7.90;99.90;;;;;;4992153;28;20052;-65
2021/10/09 01:00:06;;;;;;;2.95;0.50;;;7.90;99.90;;;;;;4992147;28;20026;-65
2021/10/09 01:02:36;;;;;;;0.43;0.43;;;7.90;99.90;;;;;;4992264;28;20053;-64
2021/10/09 01:05:06;;;;;;;1.85;0.60;;;7.90;99.90;;;;;;4992518;28;20409;-64
2021/10/09 01:07:32;;;;;;;0.43;0.43;;;7.90;99.90;;;;;;4991742;28;20455;-64
2021/10/09 01:09:59;;;;;;;1.50;0.52;;;7.90;99.90;;;;;;4991735;28;20140;-65
2021/10/09 01:12:25;;;;;;;0.40;0.40;;;7.90;99.90;;;;;;4992106;28;20064;-65
2021/10/09 01:14:50;;;;;;;0.40;0.40;;;7.90;99.90;;;;;;4992108;28;20026;-66
2021/10/09 01:17:16;;;;;;;0.47;0.47;;;7.80;99.90;;;;;;4992523;28;20023;-65
2021/10/09 01:19:42;;;;;;;0.40;0.40;;;7.80;99.90;;;;;;4992058;28;20478;-65
2021/10/09 01:22:09;;;;;;;1.20;0.50;;;7.70;99.90;;;;;;4991927;28;20485;-65
2021/10/09 01:24:39;;;;;;;0.43;0.43;;;7.80;99.90;;;;;;4991956;28;20458;-65
2021/10/09 01:27:05;;;;;;;2.15;0.50;;;7.70;99.90;;;;;;4991874;28;20030;-65
2021/10/09 01:29:32;;;;;;;0.43;0.43;;;7.70;99.90;;;;;;4991916;28;20109;-65
2021/10/09 01:31:59;;;;;;;0.45;0.45;;;7.70;99.90;;;;;;4992059;28;20057;-65
2021/10/09 01:34:27;;;;;;;0.40;0.40;;;7.70;99.90;;;;;;4991786;28;20386;-65
2021/10/09 01:36:53;;;;;;;2.25;0.60;;;7.70;99.90;;;;;;4991657;28;20022;-66
2021/10/09 01:39:19;;;;;;;0.85;0.50;;;7.60;99.90;;;;;;4991929;28;20041;-65
2021/10/09 01:41:47;;;;;;;0.82;0.60;;;7.60;99.90;;;;;;4990486;28;20458;-65
2021/10/09 01:44:14;;;;;;;3.13;0.60;;;7.60;99.90;;;;;;4991822;28;20410;-65
2021/10/09 01:46:40;;;;;;;0.50;0.50;;;7.70;99.90;;;;;;4991638;28;20474;-65
2021/10/09 01:49:07;;;;;;;0.50;0.50;;;7.70;99.90;;;;;;4991374;28;20466;-65
2021/10/09 01:51:33;;;;;;;0.60;0.60;;;7.70;99.90;;;;;;4991501;28;20039;-65
2021/10/09 01:53:59;;;;;;;0.50;0.50;;;7.70;99.90;;;;;;4991319;28;20027;-65
2021/10/09 01:56:25;;;;;;;0.75;0.50;;;7.70;99.90;;;;;;4991515;28;20072;-65
2021/10/09 01:58:51;;;;;;;1.27;0.57;;;7.70;99.90;;;;;;4991506;28;20019;-65
2021/10/09 02:01:17;;;;;;;3.75;0.63;;;7.70;99.90;;;;;;4991572;28;20057;-65
2021/10/09 02:03:43;;;;;;;5.25;1.02;;;7.80;99.90;;;;;;4991383;28;20465;-65
2021/10/09 02:06:10;;;;;;;0.40;0.40;;;7.70;99.90;;;;;;4991193;28;20065;-64
2021/10/09 02:08:37;;;;;;;1.00;0.65;;;7.80;99.90;;;;;;4991351;28;20030;-65
2021/10/09 02:11:08;;;;;;;0.82;0.50;;;7.80;99.90;;;;;;4990926;28;20039;-65
2021/10/09 02:55:41;;;;;;;0.40;0.40;;;7.70;99.90;;;;;;4990182;28;20042;-64
2021/10/09 02:58:07;;;;;;;1.13;0.75;;;7.70;99.90;;;;;;4990452;28;20500;-64
2021/10/09 03:00:33;;;;;;;0.50;0.50;;;7.60;99.90;;;;;;4990809;28;20034;-64
2021/10/09 03:02:59;;;;;;;1.05;0.50;;;7.60;99.90;;;;;;4990634;28;20024;-64
2021/10/09 03:05:25;;;;;;;4.50;0.50;;;7.60;99.90;;;;;;4990733;28;20054;-64
2021/10/09 03:07:51;;;;;;;2.58;0.50;;;7.60;99.90;;;;;;4990242;28;20488;-64
2021/10/09 03:10:17;;;;;;;1.15;0.47;;;7.60;99.90;;;;;;4990590;28;20076;-64
2021/10/09 03:12:43;;;;;;;0.40;0.40;;;7.50;99.90;;;;;;4990356;28;20034;-64
2021/10/09 03:15:10;;;;;;;0.73;0.50;;;7.50;99.90;;;;;;4990615;28;20466;-64
2021/10/09 03:17:37;;;;;;;0.40;0.40;;;7.60;99.90;;;;;;4990178;28;20031;-64
2021/10/09 03:20:04;;;;;;;0.47;0.40;;;7.50;99.90;;;;;;4990208;28;20065;-64
2021/10/09 03:22:31;;;;;;;1.55;0.60;;;7.50;99.90;;;;;;4990427;28;20367;-64
2021/10/09 03:24:57;;;;;;;0.50;0.50;;;7.50;99.90;;;;;;4990290;28;20115;-64
2021/10/09 03:27:23;;;;;;;2.20;0.40;;;7.50;99.90;;;;;;4990432;28;20027;-64
2021/10/09 03:29:48;;;;;;;1.83;0.60;;;7.50;99.90;;;;;;4990106;28;20377;-64
2021/10/09 03:32:14;;;;;;;0.60;0.50;;;7.50;99.90;;;;;;4989274;28;20034;-64
2021/10/09 03:34:40;;;;;;;3.58;0.60;;;7.60;99.90;;;;;;4989806;28;20026;-64
2021/10/09 03:37:07;;;;;;;3.90;0.55;;;7.60;99.90;;;;;;4990000;28;20035;-64
2021/10/09 03:39:36;;;;;;;1.33;0.50;;;7.60;99.90;;;;;;4990036;28;20030;-64
2021/10/09 03:42:07;;;;;;;1.98;0.50;;;7.60;99.90;;;;;;4990094;28;20080;-64
2021/10/09 03:44:38;;;;;;;0.57;0.57;;;7.60;99.90;;;;;;4989919;28;20022;-64
2021/10/09 03:47:18;;;;;;;1.10;0.45;;;7.60;99.90;;;;;;4989921;28;20034;-64
2021/10/09 03:49:59;;;;;;;0.73;0.60;;;7.60;99.90;;;;;;4989705;28;20044;-64
2021/10/09 03:52:38;;;;;;;;;;;7.60;99.90;;;;;;4990571;28;20276;-64
2021/10/09 03:55:07;;;;;;;0.68;0.50;;;7.60;99.90;;;;;;4989762;28;19952;-64
2021/10/09 03:57:34;;;;;;;0.50;0.50;;;7.60;99.90;;;;;;4989743;28;20043;-64
2021/10/09 03:59:59;;;;;;;1.27;0.50;;;7.60;99.90;;;;;;4989857;28;20088;-64
2021/10/09 04:02:25;;;;;;;0.80;0.40;;;7.50;99.90;;;;;;4989784;28;20030;-64
2021/10/09 04:04:51;;;;;;;2.28;0.50;;;7.50;99.90;;;;;;4989947;28;20031;-64
2021/10/09 04:07:17;;;;;;;0.85;0.45;;;7.50;99.90;;;;;;4989975;28;20023;-64
2021/10/09 04:09:42;;;;;;;0.73;0.52;;;7.50;99.90;;;;;;4989562;28;20121;-64
2021/10/09 04:12:08;;;;;;;2.88;0.68;;;7.50;99.90;;;;;;4989901;28;20079;-64
2021/10/09 04:14:34;;;;;;;1.02;0.50;;;7.50;99.90;;;;;;4989847;28;20022;-64
2021/10/09 04:16:59;;;;;;;2.05;0.60;;;7.50;99.90;;;;;;4989843;28;20494;-64
2021/10/09 04:19:25;;;;;;;1.05;0.50;;;7.40;99.90;;;;;;4989697;28;20595;-64
2021/10/09 04:21:51;;;;;;;0.47;0.47;;;7.50;99.90;;;;;;4989738;28;20026;-64
2021/10/09 04:24:19;;;;;;;1.20;0.70;;;7.40;99.90;;;;;;4989368;28;20390;-64
2021/10/09 04:26:45;;;;;;;0.60;0.50;;;7.50;99.90;;;;;;4989568;28;20100;-64
2021/10/09 04:29:11;;;;;;;1.88;0.55;;;7.50;99.90;;;;;;4989362;28;20057;-64
2021/10/09 04:31:37;;;;;;;1.20;0.50;;;7.50;99.90;;;;;;4989509;28;20070;-68
2021/10/09 04:34:03;;;;;;;1.50;0.60;;;7.50;99.90;;;;;;4989173;28;20025;-69
2021/10/09 04:36:28;;;;;;;0.50;0.45;;;7.60;99.90;;;;;;4989239;28;20486;-69
2021/10/09 04:38:55;;;;;;;1.88;0.50;;;7.50;99.90;;;;;;4989287;28;20030;-69
2021/10/09 04:41:20;;;;;;;0.60;0.50;;;7.70;99.90;;;;;;4989516;28;20027;-69
2021/10/09 04:43:46;;;;;;;0.73;0.40;;;8.50;99.90;;;;;;4991660;28;20101;-67
2021/10/09 04:46:12;;;;;;;0.50;0.50;;;8.60;99.90;;;;;;4992614;28;20462;-67
2021/10/09 04:48:37;;;;;;;0.85;0.50;;;8.50;99.90;;;;;;4992518;28;20026;-68
2021/10/09 04:51:03;;;;;;;0.98;0.45;;;8.30;99.90;;;;;;4992183;28;20035;-68
2021/10/09 04:53:29;;;;;;;0.57;0.50;;;8.20;99.90;;;;;;4992749;28;20027;-68
2021/10/09 04:55:55;;;;;;;0.85;0.50;;;8.10;99.90;;;;;;4992243;28;20451;-68
2021/10/09 04:58:21;;;;;;;0.50;0.50;;;8.00;99.90;;;;;;4992609;28;20062;-68
2021/10/09 05:00:48;;;;;;;0.90;0.50;;;7.90;99.90;;;;;;4992164;28;20083;-68
2021/10/09 05:03:14;;;;;;;0.50;0.50;;;7.90;99.90;;;;;;4992286;28;20064;-67
2021/10/09 05:05:42;;;;;;;1.42;0.50;;;7.80;99.90;;;;;;4992341;28;20034;-67
2021/10/09 05:08:08;;;;;;;0.50;0.50;;;7.70;99.90;;;;;;4992461;28;20431;-67
2021/10/09 05:10:34;;;;;;;3.20;1.48;;;7.70;99.90;;;;;;4992094;28;20038;-67
2021/10/09 05:13:00;;;;;;;2.90;0.50;;;7.60;99.90;;;;;;4992024;28;20026;-67
2021/10/09 05:15:26;;;;;;;1.90;0.50;;;7.50;99.90;;;;;;4992382;28;20382;-67
2021/10/09 05:17:52;;;;;;;0.50;0.50;;;7.50;99.90;;;;;;4991997;28;20101;-67
2021/10/09 05:20:18;;;;;;;0.70;0.50;;;7.50;99.90;;;;;;4992341;28;20023;-67
2021/10/09 05:22:44;;;;;;;1.40;0.60;;;7.50;99.90;;;;;;4991888;28;20615;-67
2021/10/09 05:25:11;;;;;;;0.98;0.50;;;7.40;99.90;;;;;;4992061;28;20030;-67
2021/10/09 05:27:38;;;;;;;0.47;0.45;;;7.50;99.90;;;;;;4992069;28;20034;-67
2021/10/09 05:30:08;;;;;;;2.03;0.77;;;7.40;99.90;;;;;;4991720;28;20455;-68
2021/10/09 05:32:36;;;;;;;0.50;0.50;;;7.40;99.90;;;;;;4991957;28;20026;-66
2021/10/09 05:35:02;;;;;;;0.88;0.40;;;7.50;99.90;;;;;;4991445;28;20110;-66
2021/10/09 05:37:31;;;;;;;0.80;0.50;;;7.50;99.90;;;;;;4991896;28;20396;-66
2021/10/09 05:39:58;;;;;;;1.83;0.47;;;7.50;99.90;;;;;;4991672;28;20022;-66
2021/10/09 05:42:23;;;;;;;1.92;0.50;;;7.50;99.90;;;;;;4992091;28;20038;-66
2021/10/09 05:44:50;;;;;;;1.23;0.70;;;7.50;99.90;;;;;;4991597;28;20393;-66
2021/10/09 05:47:16;;;;;;;0.40;0.40;;;7.50;99.90;;;;;;4991985;28;20040;-66
2021/10/09 05:49:43;;;;;;;0.68;0.50;;;7.50;99.90;;;;;;4991876;28;20525;-66
2021/10/09 05:52:15;;;;;;;1.63;0.50;;;7.50;99.90;;;;;;4991498;28;20027;-66
2021/10/09 05:54:52;;;;;;;0.57;0.40;;;7.50;99.90;;;;;;4989925;28;20497;-66
2021/10/09 05:57:38;;;;;;;0.68;0.50;;;7.60;99.90;;;;;;4991461;28;20050;-66
2021/10/09 06:46:54;;;;;;;3.50;0.80;;;8.90;99.90;;;;;;4991200;28;20061;-68
2021/10/09 07:00:13;;;;;;;2.10;0.50;;;10.40;99.90;;;;;;4990811;28;20118;-68
2021/10/09 07:02:40;;;;;;;0.60;0.50;;;10.10;99.90;;;;;;4990639;28;20038;-68
2021/10/09 07:05:10;;;;;;;0.82;0.60;;;9.80;99.90;;;;;;4990609;28;20041;-68
2021/10/09 07:07:40;;;;;;;0.47;0.47;;;9.60;99.90;;;;;;4989704;28;20026;-68
2021/10/09 07:10:07;;;;;;;;;;;9.50;99.90;;;;;;4990987;28;20446;-68
2021/10/09 07:12:32;;;;;;;1.95;0.65;;;9.40;99.90;;;;;;4990323;28;19910;-68
2021/10/09 07:14:58;;;;;;;1.13;0.60;;;9.30;99.90;;;;;;4990397;28;20164;-68
2021/10/09 07:17:24;;;;;;;0.52;0.52;;;9.30;99.90;;;;;;4990273;28;20054;-68
2021/10/09 07:19:50;;;;;;;1.25;0.50;;;9.30;99.90;;;;;;4990013;28;20023;-68
2021/10/09 07:22:15;;;;;;;0.98;0.50;;;9.30;99.90;;;;;;4990500;28;20031;-72
2021/10/09 07:24:41;;;;;;;0.57;0.50;;;9.30;99.90;;;;;;4990339;28;20106;-72
2021/10/09 07:27:07;;;;;;;1.27;0.63;;;9.30;99.90;;;;;;4990281;28;20030;-72
2021/10/09 07:29:32;;;;;;;3.38;1.38;;;9.30;99.90;;;;;;4990046;28;20427;-72
2021/10/09 07:31:58;;;;;;;0.93;0.50;;;9.30;99.90;;;;;;4990060;28;20070;-72
2021/10/09 07:34:24;;;;;;;2.35;0.60;;;9.30;99.90;;;;;;4987240;28;20404;-72
2021/10/09 07:36:50;;;;;;;0.40;0.40;;;9.40;99.90;;;;;;4989646;28;20477;-72
2021/10/09 07:39:16;;;;;;;1.80;0.63;;;9.40;99.90;;;;;;4989333;28;20027;-72
2021/10/09 07:41:42;;;;;;;0.77;0.45;;;9.40;99.90;;;;;;4989834;28;20439;-72
2021/10/09 07:44:07;;;;;;;2.72;0.63;;;9.50;99.90;;;;;;4989264;28;20076;-72
2021/10/09 07:46:33;;;;;;;0.40;0.40;;;9.50;99.90;;;;;;4989399;28;20080;-72
2021/10/09 07:48:59;;;;;;;0.40;0.40;;;9.50;99.90;;;;;;4989198;28;20038;-72
2021/10/09 07:51:25;;;;;;;0.88;0.50;;;9.50;99.90;;;;;;4989606;28;20038;-72
2021/10/09 07:53:51;;;;;;;2.55;0.60;;;9.50;99.90;;;;;;4989074;28;20462;-72
2021/10/09 07:56:16;;;;;;;1.10;0.30;;;9.50;99.90;;;;;;4989891;28;20497;-71
2021/10/09 07:58:42;;;;;;;1.10;0.40;;;9.50;99.90;;;;;;4989727;28;20030;-71
2021/10/09 08:01:08;;;;;;;0.38;0.38;;;9.60;99.90;;;;;;4989595;28;20053;-69
2021/10/09 08:03:34;;;;;;;0.40;0.40;;;9.60;99.90;;;;;;4989927;28;20031;-70
2021/10/09 08:06:00;;;;;;;0.30;0.30;;;9.60;99.90;;;;;;4989800;28;20194;-69
2021/10/09 08:08:26;;;;;;;0.35;0.35;;;9.70;99.90;;;;;;4989975;28;20023;-69
2021/10/09 08:10:53;;;;;;;0.70;0.30;;;9.70;99.90;;;;;;4989858;28;20042;-68
2021/10/09 08:13:19;;;;;;;0.40;0.40;;;9.80;99.90;;;;;;4990055;28;20098;-68
2021/10/09 08:15:45;;;;;;;0.40;0.40;;;9.80;99.90;;;;;;4989624;28;20192;-66
2021/10/09 08:18:11;;;;;;;0.50;0.40;;;9.80;99.90;;;;;;4991408;28;20034;-67
2021/10/09 08:20:39;;;;;;;2.17;0.50;;;9.90;99.90;;;;;;4992956;28;20510;-67
2021/10/09 08:23:12;;;;;;;1.30;0.50;;;9.90;99.90;;;;;;4993068;28;20030;-67
2021/10/09 08:26:17;;;;;;;0.40;0.40;;;10.00;99.90;;;;;;4992750;28;20688;-67
2021/10/09 08:36:34;;;;;;;0.40;0.30;;;10.10;99.90;;;;;;4992983;28;20041;-67
2021/10/09 08:39:00;;;;;;;0.50;0.30;;;10.10;99.90;;;;;;4992531;28;20037;-67
2021/10/09 08:41:25;;;;;;;0.20;0.20;;;10.10;99.90;;;;;;4992616;28;20030;-67
2021/10/09 08:43:53;;;;;;;1.42;0.30;;;10.20;99.90;;;;;;4992722;28;20031;-67
2021/10/09 08:46:20;;;;;;;0.85;0.30;;;10.20;99.90;;;;;;4992587;28;20038;-67
2021/10/09 08:48:50;;;;;;;1.42;0.40;;;10.20;99.90;;;;;;4992596;28;20026;-67
2021/10/09 08:51:28;;;;;;;0.38;0.32;;;10.30;99.90;;;;;;4992236;28;20116;-67
2021/10/09 08:54:02;;;;;;;2.28;0.40;;;10.30;99.90;;;;;;4992040;28;20029;-67
2021/10/09 08:56:28;;;;;;;3.35;1.08;;;10.40;99.90;;;;;;4992363;28;20133;-67
2021/10/09 08:59:08;;;;;;;0.30;0.30;;;11.00;99.90;;;;;;4992347;28;20114;-67
2021/10/09 09:38:53;;;;;;;0.40;0.22;;;11.30;99.90;;;;;;4991756;28;20026;-66
2021/10/09 09:40:17;;;;;;;0.32;0.20;;;11.30;99.90;;;;;;4991470;28;20033;-65
2021/10/09 09:42:46;;;;;;;0.30;0.30;;;11.40;99.90;;;;;;4991794;28;20026;-66
2021/10/09 09:45:18;;;;;;;0.50;0.30;;;11.40;99.90;;;;;;4991567;28;20026;-66
2021/10/09 09:47:44;;;;;;;0.65;0.20;;;11.40;99.90;;;;;;4991750;28;20315;-65
2021/10/09 09:50:13;;;;;;;0.82;0.40;;;11.50;99.90;;;;;;4991441;28;20030;-66
2021/10/09 09:52:42;;;;;;;3.50;1.33;;;11.50;99.90;;;;;;4991898;28;20073;-68
2021/10/09 09:55:10;;;;;;;2.38;1.13;;;11.50;99.90;;;;;;4991370;28;20056;-68
2021/10/09 09:57:37;;;;;;;1.95;0.73;;;12.50;99.90;;;;;;4991082;28;20055;-65
2021/10/09 10:00:07;;;;;;;0.65;0.30;;;13.10;99.90;;;;;;4991205;28;20445;-67
2021/10/09 10:02:39;;;;;;;1.60;0.30;;;12.90;99.90;;;;;;4991773;28;20359;-67
2021/10/09 10:05:05;;;;;;;0.70;0.25;;;12.60;99.90;;;;;;4991086;28;20038;-67
2021/10/09 10:07:34;;;;;;;0.70;0.20;;;12.40;99.90;;;;;;4991389;28;20071;-67
2021/10/09 10:10:00;;;;;;;0.45;0.22;;;12.30;99.90;;;;;;4991056;28;20030;-67
2021/10/09 10:12:26;;;;;;;0.32;0.30;;;12.20;99.90;;;;;;4991261;28;20611;-67
2021/10/09 10:14:53;;;;;;;1.45;0.25;;;12.20;99.90;;;;;;4991217;28;20054;-67
2021/10/09 10:17:43;;;;;;;1.50;0.30;;;12.20;99.90;;;;;;4991085;28;20288;-67
2021/10/09 10:20:17;;;;;;;0.28;0.28;;;12.20;99.90;;;;;;4991051;28;20103;-68
2021/10/09 10:22:43;;;;;;;0.30;0.30;;;12.20;99.90;;;;;;4991048;28;20046;-67
2021/10/09 10:25:26;;;;;;;1.08;0.40;;;12.20;99.90;;;;;;4991136;28;20018;-67
2021/10/09 10:28:13;;;;;;;0.30;0.30;;;12.20;99.90;;;;;;4991269;28;20022;-67
2021/10/09 10:30:42;;;;;;;0.85;0.40;;;12.20;99.90;;;;;;4991115;28;20386;-67
2021/10/09 10:33:10;;;;;;;0.20;0.20;;;12.30;99.90;;;;;;4990830;28;20038;-67
2021/10/09 10:35:35;;;;;;;2.22;0.30;;;12.30;99.90;;;;;;4991108;28;20048;-67
2021/10/09 10:38:32;;;;;;;0.13;0.13;;;12.30;99.90;;;;;;4990794;28;20530;-67
2021/10/09 10:41:00;;;;;;;1.60;0.20;;;12.30;99.90;;;;;;4990582;28;20037;-67
2021/10/09 10:46:20;;;;;;;0.30;0.30;;;12.40;99.90;;;;;;4990806;28;20023;-67
2021/10/09 10:48:52;;;;;;;0.63;0.30;;;12.40;99.90;;;;;;4990665;28;20088;-67
2021/10/09 10:51:35;;;;;;;2.17;0.32;;;12.40;99.90;;;;;;4990763;28;20038;-67
2021/10/09 10:56:36;;;;;;;2.15;0.40;;;12.50;99.90;;;;;;4990491;28;20061;-67
2021/10/09 10:59:55;;;;;;;1.80;0.22;;;12.50;99.90;;;;;;4990199;28;20390;-67
2021/10/09 11:02:38;;;;;;;0.40;0.32;;;12.50;99.90;;;;;;4990004;28;20488;-67
2021/10/09 11:05:09;;;;;;;0.93;0.20;;;12.50;99.90;;;;;;4990041;28;20026;-66
2021/10/09 11:07:35;;;;;;;;;;;12.60;99.90;;;;;;4990926;28;20083;-66
2021/10/09 11:10:01;;;;;;;1.55;0.30;;;12.60;99.90;;;;;;4989953;28;19910;-66
2021/10/09 11:12:31;;;;;;;0.35;0.20;;;12.60;99.90;;;;;;4989996;28;20062;-66
2021/10/09 11:15:22;;;;;;;1.23;0.38;;;12.60;99.90;;;;;;4990295;28;20374;-67
2021/10/09 11:18:04;;;;;;;0.65;0.30;;;12.70;99.90;;;;;;4990470;28;20026;-67
2021/10/09 11:20:37;;;;;;;1.50;0.20;;;12.70;99.90;;;;;;4990295;28;20065;-67
2021/10/09 11:23:08;;;;;;;0.60;0.28;;;12.70;99.90;;;;;;4990203;28;20496;-67
2021/10/09 11:25:40;;;;;;;0.20;0.20;;;12.80;99.90;;;;;;4990312;28;20027;-67
2021/10/09 11:28:30;;;;;;;0.30;0.30;;;12.80;99.90;;;;;;4990203;28;20030;-67
2021/10/09 11:30:57;;;;;;;1.35;0.35;;;12.80;99.90;;;;;;4990152;28;20034;-67
2021/10/09 11:33:27;;;;;;;1.45;0.20;;;12.80;99.90;;;;;;4990045;28;20775;-67
2021/10/09 11:35:56;;;;;;;2.53;0.30;;;12.90;99.90;;;;;;4990071;28;20029;-68
2021/10/09 11:38:23;;;;;;;0.20;0.20;;;12.90;99.90;;;;;;4990028;28;20034;-67
2021/10/09 11:46:01;;;;;;;2.60;0.30;;;13.00;99.90;;;;;;4989904;28;20022;-67
2021/10/09 11:56:30;;;;;;;0.70;0.30;;;14.40;99.90;;;;;;4989796;28;20111;-67
2021/10/09 11:58:59;;;;;;;0.30;0.30;;;14.20;99.90;;;;;;4989739;28;20054;-67
2021/10/09 12:01:33;;;;;;;0.25;0.25;;;13.90;99.90;;;;;;4989866;28;20030;-67
2021/10/09 12:04:17;;;;;;;1.45;0.40;;;13.70;99.90;;;;;;4989742;28;20026;-67
2021/10/09 12:06:48;;;;;;;2.67;0.20;;;13.60;99.90;;;;;;4989660;28;20038;-67
2021/10/09 12:09:16;;;;;;;10.50;0.70;;;13.50;99.90;;;;;;4989917;28;20031;-67
2021/10/09 12:11:42;;;;;;;1.00;0.43;;;13.50;99.90;;;;;;4989460;28;20042;-67
2021/10/09 12:14:10;;;;;;;4.75;0.75;;;13.50;99.90;;;;;;4989812;28;20027;-67
2021/10/09 12:16:46;;;;;;;0.40;0.40;;;13.40;99.90;;;;;;4989639;28;20026;-67
2021/10/09 12:19:25;;;;;;;0.75;0.47;;;13.40;99.90;;;;;;4989524;28;20109;-67
2021/10/09 12:21:54;;;;;;;1.25;0.28;;;13.40;99.90;;;;;;4989651;28;20177;-67
2021/10/09 12:24:25;;;;;;;1.95;0.50;;;13.40;99.90;;;;;;4989440;28;20102;-67
2021/10/09 12:27:18;;;;;;;0.55;0.20;;;13.60;99.90;;;;;;4989335;28;20105;-68
2021/10/09 12:29:55;;;;;;;1.40;0.20;;;13.70;99.90;;;;;;4989580;28;20033;-66
2021/10/09 12:32:21;;;;;;;0.20;0.20;;;13.70;99.90;;;;;;4989625;28;20038;-67
2021/10/09 12:34:47;;;;;;;0.55;0.10;;;13.60;99.90;;;;;;4989005;28;20036;-67
2021/10/09 12:37:24;;;;;;;0.10;0.10;;;13.50;99.90;;;;;;4989256;28;20381;-67
2021/10/09 12:40:12;;;;;;;0.47;0.20;;;13.50;99.90;;;;;;4989291;28;20018;-67
2021/10/09 12:42:41;;;;;;;0.63;0.20;;;13.60;99.90;;;;;;4992218;28;20030;-67
2021/10/09 12:45:07;;;;;;;0.22;0.13;;;13.50;99.90;;;;;;4989159;28;20050;-67
2021/10/09 12:47:32;;;;;;;0.20;0.20;;;13.50;99.90;;;;;;4989404;28;20050;-67
2021/10/09 12:49:58;;;;;;;0.20;0.20;;;13.60;99.90;;;;;;4989128;28;20113;-67
2021/10/09 12:52:24;;;;;;;0.30;0.20;;;13.60;99.90;;;;;;4988975;28;20500;-68
2021/10/09 12:54:49;;;;;;;2.05;0.25;;;13.60;99.90;;;;;;4988638;28;20022;-67
2021/10/09 12:57:15;;;;;;;0.35;0.30;;;13.60;99.90;;;;;;4988119;28;20056;-68
2021/10/09 12:59:41;;;;;;;0.70;0.20;;;13.50;99.90;;;;;;4988476;28;20048;-68
2021/10/09 13:02:07;;;;;;;0.55;0.20;;;13.60;99.90;;;;;;4988453;28;20054;-68
2021/10/09 13:04:34;;;;;;;2.38;0.95;;;13.60;99.90;;;;;;4989088;28;20034;-67
2021/10/09 13:07:00;;;;;;;0.55;0.20;;;13.60;99.90;;;;;;4991938;28;20027;-67
2021/10/09 13:09:26;;;;;;;1.20;0.30;;;13.50;99.90;;;;;;4991962;28;20518;-67
2021/10/09 13:12:00;;;;;;;0.55;0.20;;;13.50;99.90;;;;;;4991589;28;20102;-67
2021/10/09 13:14:26;;;;;;;2.40;0.30;;;13.50;99.90;;;;;;4989695;28;20027;-67
2021/10/09 13:16:52;;;;;;;0.47;0.20;;;13.50;99.90;;;;;;4991724;28;20023;-67
2021/10/09 13:19:18;;;;;;;3.65;0.30;;;13.50;99.90;;;;;;4991743;28;20030;-67
2021/10/09 13:21:44;;;;;;;0.65;0.30;;;13.50;99.90;;;;;;4991771;28;20097;-68
2021/10/09 13:24:10;;;;;;;0.57;0.20;;;13.50;99.90;;;;;;4991820;28;20134;-67
2021/10/09 13:26:36;;;;;;;5.43;0.30;;;13.50;99.90;;;;;;4991566;28;20659;-68
2021/10/09 13:29:03;;;;;;;0.40;0.20;;;13.50;99.90;;;;;;4988864;28;20030;-67
2021/10/09 13:31:29;;;;;;;2.30;0.30;;;13.50;99.90;;;;;;4991186;28;20045;-68
2021/10/09 13:33:56;;;;;;;1.48;0.20;;;13.60;99.90;;;;;;4991742;28;20023;-67
2021/10/09 13:36:23;;;;;;;3.95;0.40;;;13.60;99.90;;;;;;4990396;28;20062;-68
2021/10/09 13:38:49;;;;;;;2.83;0.40;;;13.60;99.90;;;;;;4991340;28;20018;-68
2021/10/09 13:41:18;;;;;;;0.57;0.28;;;13.60;99.90;;;;;;4991524;28;20035;-68
2021/10/09 13:43:44;;;;;;;0.68;0.30;;;13.60;99.90;;;;;;4991340;28;20469;-67
2021/10/09 13:46:13;;;;;;;7.20;0.50;;;13.60;99.90;;;;;;4988882;28;20411;-67
2021/10/09 13:48:41;;;;;;;3.13;0.60;;;13.60;99.90;;;;;;4991364;28;20160;-66
2021/10/09 13:51:12;;;;;;;1.05;0.57;;;13.70;99.90;;;;;;4988892;28;20041;-66
2021/10/09 13:53:41;;;;;;;1.27;0.40;;;13.70;99.90;;;;;;4991222;28;20026;-67
2021/10/09 13:56:07;;;;;;;7.20;0.83;;;13.70;99.90;;;;;;4988496;28;20047;-66
2021/10/09 13:58:33;;;;;;;6.22;1.10;;;14.10;99.90;;;;;;4991136;28;20027;-65
2021/10/09 14:00:58;;;;;;;4.47;0.60;;;14.20;99.90;;;;;;4991061;28;20022;-65
2021/10/09 14:03:25;;;;;;;5.10;0.70;;;14.10;99.90;;;;;;4990737;28;20367;-66
2021/10/09 14:05:52;;;;;;;1.10;0.50;;;14.10;99.90;;;;;;4990699;28;20050;-66
2021/10/09 14:08:17;;;;;;;5.07;0.50;;;14.00;99.90;;;;;;4990739;28;20033;-65
2021/10/09 14:10:43;;;;;;;11.60;0.95;;;14.00;99.90;;;;;;4989847;28;20030;-66
2021/10/09 14:13:11;;;;;;;2.45;0.90;;;13.90;99.90;;;;;;4990587;28;20030;-67
2021/10/09 14:15:40;;;;;;;4.85;0.73;;;13.90;99.90;;;;;;4990503;28;20474;-65
2021/10/09 14:18:06;;;;;;;5.18;0.70;;;13.90;99.90;;;;;;4990493;28;20030;-66
2021/10/09 14:20:32;;;;;;;5.50;0.50;;;13.90;99.90;;;;;;4990602;28;20076;-66
2021/10/09 14:23:01;;;;;;;1.70;0.65;;;13.90;99.90;;;;;;4991037;28;20073;-66
2021/10/09 14:25:31;;;;;;;2.45;0.50;;;13.90;99.90;;;;;;4991226;28;20390;-66
2021/10/09 14:28:03;;;;;;;14.60;1.23;;;13.90;99.90;;;;;;4991200;28;20088;-67
2021/10/09 14:30:30;;;;;;;6.05;0.70;;;13.90;99.90;;;;;;4990905;28;20038;-68
2021/10/09 14:32:56;;;;;;;8.82;0.60;;;13.90;99.90;;;;;;4990735;28;20496;-68
2021/10/09 14:35:23;;;;;;;13.88;1.25;;;13.90;99.90;;;;;;4990558;28;20101;-68
2021/10/09 14:37:49;;;;;;;11.00;1.23;;;13.90;99.90;;;;;;4990672;28;20034;-67
2021/10/09 14:40:15;;;;;;;2.15;0.80;;;13.90;99.90;;;;;;4990772;28;20026;-68
2021/10/09 14:42:44;;;;;;;1.67;0.45;;;13.90;99.90;;;;;;4990875;28;20026;-67
2021/10/09 14:45:10;;;;;;;4.97;0.68;;;13.80;99.90;;;;;;4990853;28;20041;-67
2021/10/09 14:47:49;;;;;;;5.95;0.63;;;13.90;99.90;;;;;;4991052;28;20033;-67
2021/10/09 14:53:18;;;;;;;9.63;1.05;;;13.80;99.90;;;;;;4990995;28;20068;-67
2021/10/09 15:19:53;;;;;;;28.65;1.50;;;13.70;99.90;;;;;;4990736;28;20030;-66
2021/10/09 15:22:19;;;;;;;10.10;1.50;;;13.70;99.90;;;;;;4990462;28;20019;-65
2021/10/09 15:24:44;;;;;;;8.32;0.90;;;14.20;99.90;;;;;;4990565;28;20026;-66
2021/10/09 15:27:10;;;;;;;6.40;1.23;;;14.80;99.90;;;;;;4989349;28;20069;-66
2021/10/09 15:29:36;;;;;;;7.20;1.00;;;14.90;99.90;;;;;;4990428;28;20030;-66
2021/10/09 15:32:02;;;;;;;17.13;1.98;;;14.70;99.90;;;;;;4989902;28;20477;-66
2021/10/09 15:34:27;;;;;;;7.55;0.80;;;14.40;99.90;;;;;;4989936;28;20054;-66
2021/10/09 15:36:53;;;;;;;10.30;1.00;;;14.20;99.90;;;;;;4989853;28;20037;-66
2021/10/09 15:39:19;;;;;;;2.88;0.60;;;14.10;99.90;;;;;;4990328;28;20019;-66
2021/10/09 15:41:44;;;;;;;8.73;1.02;;;14.00;99.90;;;;;;4990000;28;20457;-65
2021/10/09 15:44:10;;;;;;;7.57;1.02;;;13.90;99.90;;;;;;4989972;28;20028;-66
2021/10/09 15:46:40;;;;;;;5.38;1.13;;;13.80;99.90;;;;;;4989671;28;20448;-66
2021/10/09 15:49:06;;;;;;;7.18;1.08;;;13.80;99.90;;;;;;4990252;28;20023;-65
2021/10/09 15:51:32;;;;;;;7.20;2.22;;;13.80;99.90;;;;;;4989982;28;20134;-65
2021/10/09 15:53:57;;;;;;;15.32;1.75;;;14.30;99.90;;;;;;4989922;28;20486;-66
2021/10/09 15:56:23;;;;;;;2.58;1.13;;;14.50;99.90;;;;;;4989691;28;20042;-68
2021/10/09 15:58:51;;;;;;;6.38;1.30;;;14.30;99.90;;;;;;4990160;28;20381;-67
2021/10/09 16:01:18;;;;;;;9.25;1.30;;;14.20;99.90;;;;;;4989608;28;20022;-68
2021/10/09 16:03:44;;;;;;;11.77;1.52;;;14.10;99.90;;;;;;4989788;28;20034;-67
2021/10/09 16:06:09;;;;;;;9.45;1.85;;;13.90;99.90;;;;;;4989511;28;20031;-66
2021/10/09 16:08:35;;;;;;;7.72;1.30;;;13.90;99.90;;;;;;4989665;28;20026;-67